createdAt,value
2019-05-26T00:01:51.055Z,4.65
2019-05-26T00:04:19.036Z,5.03
2019-05-26T00:06:58.082Z,4.40
2019-05-26T00:09:26.451Z,5.12
2019-05-26T00:11:56.861Z,5.90
2019-05-26T00:14:36.618Z,4.87
2019-05-26T00:17:04.335Z,5.00
2019-05-26T00:19:31.943Z,5.28
2019-05-26T00:21:59.678Z,4.40
2019-05-26T00:24:27.274Z,5.30
2019-05-26T00:26:55.134Z,5.00
2019-05-26T00:29:22.667Z,5.12
2019-05-26T00:31:50.426Z,5.20
2019-05-26T00:34:44.161Z,5.58
2019-05-26T00:37:12.311Z,5.22
2019-05-26T00:39:41.190Z,5.37
2019-05-26T00:42:15.035Z,5.35
2019-05-26T00:44:42.922Z,4.72
2019-05-26T00:47:10.941Z,5.28
2019-05-26T00:49:38.540Z,5.55
2019-05-26T00:52:06.535Z,4.78
2019-05-26T00:54:34.206Z,5.15
2019-05-26T00:57:01.940Z,5.03
2019-05-26T00:59:29.596Z,4.60
2019-05-26T01:01:57.202Z,5.05
2019-05-26T01:04:25.150Z,5.10
2019-05-26T01:06:53.072Z,5.05
2019-05-26T01:09:20.834Z,4.62
2019-05-26T01:11:48.682Z,5.35
2019-05-26T01:14:16.393Z,5.08
2019-05-26T01:16:44.390Z,5.28
2019-05-26T01:19:12.269Z,4.28
2019-05-26T01:21:40.305Z,4.37
2019-05-26T01:24:07.851Z,5.00
2019-05-26T01:26:36.186Z,4.67
2019-05-26T01:29:04.026Z,5.65
2019-05-26T01:31:31.766Z,5.00
2019-05-26T01:33:59.776Z,4.78
2019-05-26T01:36:28.065Z,4.87
2019-05-26T01:38:56.919Z,4.95
2019-05-26T01:41:25.781Z,5.08
2019-05-26T01:43:53.548Z,4.70
2019-05-26T01:46:21.180Z,5.25
2019-05-26T01:48:48.767Z,4.75
2019-05-26T01:51:16.448Z,4.45
2019-05-26T01:53:44.019Z,4.55
2019-05-26T01:56:12.391Z,5.40
2019-05-26T01:58:40.442Z,5.40
2019-05-26T02:01:08.091Z,5.08
2019-05-26T02:03:35.765Z,5.92
2019-05-26T02:06:03.701Z,4.87
2019-05-26T02:08:39.238Z,5.37
2019-05-26T02:11:00.684Z,5.10
2019-05-26T02:13:28.460Z,5.10
2019-05-26T02:15:56.145Z,5.47
2019-05-26T02:18:23.778Z,4.78
2019-05-26T02:20:51.434Z,5.60
2019-05-26T02:23:18.951Z,6.03
2019-05-26T02:25:46.761Z,4.12
2019-05-26T02:28:14.369Z,4.72
2019-05-26T02:30:42.091Z,5.58
2019-05-26T02:33:10.203Z,4.85
2019-05-26T02:35:37.919Z,5.08
2019-05-26T02:38:05.579Z,4.90
2019-05-26T02:40:33.267Z,4.95
2019-05-26T02:43:00.912Z,4.90
2019-05-26T02:45:28.581Z,5.80
2019-05-26T02:47:56.298Z,5.17
2019-05-26T02:50:24.197Z,5.22
2019-05-26T02:52:51.712Z,5.28
2019-05-26T02:55:19.269Z,4.65
2019-05-26T02:57:46.893Z,4.95
2019-05-26T03:00:17.095Z,4.60
2019-05-26T03:02:45.440Z,4.37
2019-05-26T03:05:15.093Z,5.50
2019-05-26T03:07:43.175Z,5.05
2019-05-26T03:10:12.585Z,4.85
2019-05-26T03:12:42.011Z,4.85
2019-05-26T03:15:10.415Z,4.47
2019-05-26T03:17:40.257Z,5.03
2019-05-26T03:20:08.183Z,5.20
2019-05-26T03:22:39.971Z,5.35
2019-05-26T03:25:07.569Z,5.90
2019-05-26T03:27:35.340Z,5.33
2019-05-26T03:30:03.253Z,4.95
2019-05-26T03:32:31.414Z,5.00
2019-05-26T03:34:59.019Z,4.75
2019-05-26T03:37:26.541Z,5.12
2019-05-26T03:39:54.052Z,4.53
2019-05-26T03:42:21.548Z,4.45
2019-05-26T03:44:49.160Z,4.65
2019-05-26T03:47:17.168Z,5.20
2019-05-26T03:49:44.825Z,4.87
2019-05-26T03:52:12.366Z,3.85
2019-05-26T03:54:40.301Z,4.22
2019-05-26T03:57:07.793Z,4.87
2019-05-26T03:59:35.275Z,5.08
2019-05-26T04:02:03.319Z,4.65
2019-05-26T04:04:30.732Z,4.83
2019-05-26T04:06:58.468Z,4.50
2019-05-26T04:09:25.923Z,4.58
2019-05-26T04:11:53.475Z,5.28
2019-05-26T04:14:20.982Z,4.87
2019-05-26T04:16:48.668Z,4.22
2019-05-26T04:19:16.452Z,4.72
2019-05-26T04:21:43.881Z,4.00
2019-05-26T04:24:11.699Z,4.10
2019-05-26T04:26:39.147Z,4.20
2019-05-26T04:29:06.875Z,4.37
2019-05-26T04:31:34.275Z,4.33
2019-05-26T04:34:01.794Z,4.62
2019-05-26T04:36:29.297Z,4.70
2019-05-26T04:38:57.106Z,4.67
2019-05-26T04:41:24.607Z,4.35
2019-05-26T04:43:52.400Z,4.10
2019-05-26T04:46:19.905Z,4.22
2019-05-26T04:48:47.453Z,4.67
2019-05-26T04:51:14.950Z,4.20
2019-05-26T04:53:42.475Z,3.90
2019-05-26T04:56:10.025Z,4.58
2019-05-26T04:58:37.550Z,4.45
2019-05-26T05:01:05.160Z,4.28
2019-05-26T05:03:32.592Z,3.85
2019-05-26T05:06:00.687Z,4.45
2019-05-26T05:08:28.442Z,4.40
2019-05-26T05:10:56.247Z,3.90
2019-05-26T05:13:25.060Z,4.62
2019-05-26T05:15:52.866Z,5.42
2019-05-26T05:18:20.666Z,4.45
2019-05-26T05:20:48.060Z,4.67
2019-05-26T05:23:15.851Z,4.67
2019-05-26T05:25:43.608Z,4.53
2019-05-26T05:28:11.142Z,4.40
2019-05-26T05:30:38.625Z,4.40
2019-05-26T05:33:06.243Z,3.70
2019-05-26T05:35:33.667Z,4.60
2019-05-26T05:38:09.269Z,4.58
2019-05-26T05:40:37.044Z,4.58
2019-05-26T05:43:04.979Z,4.55
2019-05-26T05:45:32.490Z,4.05
2019-05-26T05:48:00.008Z,4.10
2019-05-26T05:50:27.532Z,4.62
2019-05-26T05:52:55.191Z,4.10
2019-05-26T05:55:22.620Z,4.70
2019-05-26T05:57:50.114Z,4.25
2019-05-26T06:00:17.756Z,4.35
2019-05-26T06:02:46.051Z,4.78
2019-05-26T06:05:13.482Z,4.65
2019-05-26T06:07:40.958Z,5.28
2019-05-26T06:10:09.366Z,5.08
2019-05-26T06:12:37.096Z,4.62
2019-05-26T06:15:07.644Z,4.83
2019-05-26T06:17:35.571Z,4.40
2019-05-26T06:20:04.107Z,4.30
2019-05-26T06:22:32.367Z,4.17
2019-05-26T06:25:00.160Z,4.42
2019-05-26T06:27:28.521Z,4.42
2019-05-26T06:29:58.791Z,5.62
2019-05-26T06:32:25.699Z,4.72
2019-05-26T06:34:54.293Z,4.80
2019-05-26T06:37:22.134Z,4.33
2019-05-26T06:39:49.564Z,4.40
2019-05-26T06:42:17.099Z,4.00
2019-05-26T06:44:53.470Z,4.35
2019-05-26T06:47:13.980Z,4.30
2019-05-26T06:49:41.533Z,4.22
2019-05-26T06:52:09.759Z,4.05
2019-05-26T06:54:37.358Z,3.50
2019-05-26T06:57:04.827Z,3.60
2019-05-26T06:59:32.334Z,4.12
2019-05-26T07:01:59.956Z,4.08
2019-05-26T07:04:27.490Z,4.37
2019-05-26T07:06:54.883Z,3.90
2019-05-26T07:09:22.983Z,3.80
2019-05-26T07:11:58.783Z,4.37
2019-05-26T07:14:20.181Z,3.60
2019-05-26T07:16:48.044Z,4.28
2019-05-26T07:19:15.579Z,4.05
2019-05-26T07:21:43.113Z,4.30
2019-05-26T07:24:10.525Z,4.60
2019-05-26T07:26:38.096Z,4.85
2019-05-26T07:29:05.579Z,4.45
2019-05-26T07:31:33.167Z,4.03
2019-05-26T07:34:00.701Z,3.98
2019-05-26T07:36:28.823Z,4.30
2019-05-26T07:38:56.408Z,4.72
2019-05-26T07:41:24.240Z,5.45
2019-05-26T07:43:52.526Z,4.90
2019-05-26T07:46:20.037Z,5.00
2019-05-26T07:48:48.289Z,4.78
2019-05-26T07:51:16.537Z,5.12
2019-05-26T07:53:44.051Z,3.80
2019-05-26T07:56:11.672Z,4.08
2019-05-26T07:58:39.491Z,4.70
2019-05-26T08:01:07.019Z,3.95
2019-05-26T08:03:34.553Z,4.72
2019-05-26T08:06:02.408Z,4.53
2019-05-26T08:08:30.233Z,4.92
2019-05-26T08:10:58.098Z,4.87
2019-05-26T08:13:25.522Z,3.90
2019-05-26T08:15:53.311Z,4.42
2019-05-26T08:18:20.990Z,4.58
2019-05-26T08:20:48.822Z,4.20
2019-05-26T08:23:16.411Z,4.53
2019-05-26T08:25:44.193Z,3.75
2019-05-26T08:28:11.750Z,3.87
2019-05-26T08:30:39.685Z,4.45
2019-05-26T08:33:07.213Z,3.65
2019-05-26T08:35:34.888Z,3.67
2019-05-26T08:38:02.432Z,3.42
2019-05-26T08:40:30.698Z,4.22
2019-05-26T08:42:58.598Z,2.92
2019-05-26T08:45:26.085Z,3.08
2019-05-26T08:47:53.647Z,2.85
2019-05-26T08:50:21.608Z,3.35
2019-05-26T08:52:49.490Z,3.00
2019-05-26T08:55:17.316Z,3.08
2019-05-26T08:57:44.839Z,2.83
2019-05-26T09:00:15.918Z,3.00
2019-05-26T09:02:43.729Z,2.62
2019-05-26T09:05:11.455Z,3.60
2019-05-26T09:07:39.294Z,2.92
2019-05-26T09:10:07.159Z,2.70
2019-05-26T09:12:35.469Z,3.10
2019-05-26T09:15:04.113Z,3.40
2019-05-26T09:17:31.621Z,3.52
2019-05-26T09:19:59.333Z,3.62
2019-05-26T09:22:27.199Z,3.50
2019-05-26T09:24:54.654Z,4.35
2019-05-26T09:27:22.260Z,3.65
2019-05-26T09:29:50.038Z,3.80
2019-05-26T09:32:17.916Z,4.78
2019-05-26T09:34:45.439Z,4.30
2019-05-26T09:37:12.935Z,3.60
2019-05-26T09:39:40.722Z,3.90
2019-05-26T09:42:08.480Z,3.92
2019-05-26T09:44:36.311Z,4.00
2019-05-26T09:47:04.225Z,4.08
2019-05-26T09:49:33.104Z,3.72
2019-05-26T09:52:00.872Z,4.03
2019-05-26T09:54:28.441Z,3.72
2019-05-26T09:56:55.939Z,3.72
2019-05-26T09:59:23.395Z,3.52
2019-05-26T10:01:51.194Z,3.58
2019-05-26T10:04:19.050Z,3.10
2019-05-26T10:06:46.598Z,3.22
2019-05-26T10:09:14.279Z,3.90
2019-05-26T10:11:42.148Z,2.70
2019-05-26T10:14:10.007Z,3.30
2019-05-26T10:16:37.872Z,3.10
2019-05-26T10:19:05.814Z,3.10
2019-05-26T10:21:33.906Z,3.72
2019-05-26T10:24:01.902Z,2.90
2019-05-26T10:26:29.869Z,3.08
2019-05-26T10:29:00.545Z,2.87
2019-05-26T10:31:27.158Z,2.98
2019-05-26T10:33:54.706Z,2.55
2019-05-26T10:36:23.650Z,2.50
2019-05-26T10:38:52.377Z,2.00
2019-05-26T10:41:20.139Z,2.22
2019-05-26T10:43:48.124Z,1.95
2019-05-26T10:46:16.318Z,2.12
2019-05-26T10:48:43.859Z,2.37
2019-05-26T10:51:11.701Z,1.85
2019-05-26T10:53:39.529Z,1.65
2019-05-26T10:56:07.099Z,2.00
2019-05-26T10:58:34.722Z,1.95
2019-05-26T11:01:02.576Z,1.60
2019-05-26T11:03:30.779Z,2.02
2019-05-26T11:05:58.549Z,1.75
2019-05-26T11:08:26.138Z,2.15
2019-05-26T11:10:54.304Z,1.40
2019-05-26T11:13:21.924Z,1.52
2019-05-26T11:15:50.243Z,1.37
2019-05-26T11:18:18.001Z,1.60
2019-05-26T11:20:45.840Z,1.72
2019-05-26T11:23:13.903Z,1.30
2019-05-26T11:25:41.868Z,1.32
2019-05-26T11:28:09.572Z,1.52
2019-05-26T11:30:37.735Z,1.45
2019-05-26T11:33:05.372Z,1.12
2019-05-26T11:35:32.800Z,1.37
2019-05-26T11:38:00.395Z,1.25
2019-05-26T11:40:28.452Z,1.20
2019-05-26T11:42:55.940Z,1.40
2019-05-26T11:45:23.855Z,1.30
2019-05-26T11:47:51.402Z,1.27
2019-05-26T11:50:19.963Z,1.17
2019-05-26T11:52:48.834Z,1.20
2019-05-26T11:55:16.854Z,1.10
2019-05-26T11:57:44.318Z,1.30
2019-05-26T12:00:14.373Z,1.25
2019-05-26T12:02:42.362Z,1.00
2019-05-26T12:05:10.439Z,1.20
2019-05-26T12:07:38.011Z,0.93
2019-05-26T12:10:05.736Z,1.12
2019-05-26T12:12:33.250Z,1.30
2019-05-26T12:15:00.827Z,1.00
2019-05-26T12:17:28.652Z,1.07
2019-05-26T12:19:56.104Z,1.20
2019-05-26T12:22:23.659Z,1.35
2019-05-26T12:24:51.235Z,1.35
2019-05-26T12:27:19.611Z,1.27
2019-05-26T12:29:47.159Z,1.00
2019-05-26T12:32:14.972Z,1.17
2019-05-26T12:34:42.795Z,0.95
2019-05-26T12:37:10.668Z,1.00
2019-05-26T12:39:38.189Z,0.90
2019-05-26T12:42:05.615Z,1.12
2019-05-26T12:44:46.727Z,0.93
2019-05-26T12:47:02.902Z,1.10
2019-05-26T12:49:30.694Z,1.00
2019-05-26T12:51:58.183Z,1.17
2019-05-26T12:54:26.594Z,1.00
2019-05-26T12:56:54.387Z,1.00
2019-05-26T12:59:22.198Z,0.90
2019-05-26T13:01:49.863Z,1.00
2019-05-26T13:04:17.322Z,1.00
2019-05-26T13:06:45.127Z,0.82
2019-05-26T13:09:12.745Z,0.98
2019-05-26T13:11:40.371Z,1.00
2019-05-26T13:14:07.900Z,1.00
2019-05-26T13:16:36.062Z,0.90
2019-05-26T13:19:04.241Z,1.10
2019-05-26T13:21:31.815Z,1.20
2019-05-26T13:23:59.586Z,1.20
2019-05-26T13:26:27.278Z,1.20
2019-05-26T13:28:54.678Z,0.90
2019-05-26T13:31:22.213Z,1.00
2019-05-26T13:33:49.732Z,1.10
2019-05-26T13:36:17.287Z,1.20
2019-05-26T13:38:44.820Z,1.00
2019-05-26T13:41:12.353Z,0.80
2019-05-26T13:43:39.887Z,0.95
2019-05-26T13:46:07.556Z,0.82
2019-05-26T13:48:35.069Z,0.90
2019-05-26T13:51:02.643Z,1.02
2019-05-26T13:53:30.212Z,1.00
2019-05-26T13:55:57.725Z,1.00
2019-05-26T13:58:25.134Z,1.05
2019-05-26T14:00:52.570Z,0.88
2019-05-26T14:03:20.082Z,0.90
2019-05-26T14:05:47.640Z,1.10
2019-05-26T14:08:15.177Z,0.80
2019-05-26T14:10:43.061Z,0.72
2019-05-26T14:13:10.662Z,1.30
2019-05-26T14:15:39.450Z,0.90
2019-05-26T14:18:07.343Z,0.90
2019-05-26T14:20:36.880Z,1.00
2019-05-26T14:23:09.708Z,0.80
2019-05-26T14:25:37.308Z,1.00
2019-05-26T14:28:05.223Z,1.15
2019-05-26T14:30:32.738Z,0.95
2019-05-26T14:33:00.591Z,0.70
2019-05-26T14:35:28.230Z,1.10
2019-05-26T14:37:55.796Z,0.93
2019-05-26T14:40:23.687Z,1.00
2019-05-26T14:42:51.272Z,1.00
2019-05-26T14:45:18.936Z,0.98
2019-05-26T14:47:46.751Z,0.90
2019-05-26T14:50:16.347Z,0.82
2019-05-26T14:52:43.821Z,1.07
2019-05-26T14:55:12.475Z,1.32
2019-05-26T14:57:40.042Z,0.90
2019-05-26T15:00:08.146Z,0.80
2019-05-26T15:02:35.557Z,1.10
2019-05-26T15:05:03.239Z,1.05
2019-05-26T15:07:30.775Z,0.80
2019-05-26T15:09:58.458Z,0.90
2019-05-26T15:12:26.328Z,1.20
2019-05-26T15:14:54.132Z,1.17
2019-05-26T15:17:21.970Z,1.37
2019-05-26T15:19:49.385Z,0.90
2019-05-26T15:22:16.926Z,0.78
2019-05-26T15:24:44.716Z,0.90
2019-05-26T15:27:12.131Z,1.07
2019-05-26T15:29:40.069Z,1.05
2019-05-26T15:32:07.899Z,1.00
2019-05-26T15:34:35.378Z,1.10
2019-05-26T15:37:02.926Z,1.07
2019-05-26T15:39:30.787Z,1.10
2019-05-26T15:41:58.359Z,1.05
2019-05-26T15:44:25.905Z,1.07
2019-05-26T15:46:53.461Z,1.22
2019-05-26T15:49:21.015Z,1.00
2019-05-26T15:51:48.813Z,0.82
2019-05-26T15:54:17.272Z,1.00
2019-05-26T15:56:45.141Z,0.70
2019-05-26T15:59:12.968Z,0.82
2019-05-26T16:01:40.780Z,0.82
2019-05-26T16:04:08.617Z,1.10
2019-05-26T16:06:37.967Z,1.00
2019-05-26T16:09:06.308Z,1.30
2019-05-26T16:11:34.402Z,1.02
2019-05-26T16:14:02.257Z,0.72
2019-05-26T16:16:40.566Z,0.80
2019-05-26T16:18:59.356Z,0.70
2019-05-26T16:21:28.334Z,0.80
2019-05-26T16:23:56.552Z,0.93
2019-05-26T16:26:24.192Z,0.68
2019-05-26T16:28:51.703Z,0.80
2019-05-26T16:31:19.364Z,0.65
2019-05-26T16:33:47.290Z,0.85
2019-05-26T16:36:14.943Z,1.10
2019-05-26T16:38:42.561Z,0.70
2019-05-26T16:41:10.115Z,0.65
2019-05-26T16:43:38.264Z,1.02
2019-05-26T16:46:05.856Z,1.17
2019-05-26T16:48:33.973Z,1.27
2019-05-26T16:51:01.552Z,0.93
2019-05-26T16:53:29.065Z,6.85
2019-05-26T16:55:57.148Z,5.47
2019-05-26T16:58:25.016Z,3.30
2019-05-26T17:00:53.571Z,1.57
2019-05-26T17:03:21.183Z,1.00
2019-05-26T17:05:48.770Z,0.90
2019-05-26T17:08:16.888Z,0.93
2019-05-26T17:10:44.513Z,0.80
2019-05-26T17:13:12.054Z,0.50
2019-05-26T17:15:40.188Z,0.70
2019-05-26T17:18:07.721Z,0.68
2019-05-26T17:20:35.566Z,0.65
2019-05-26T17:23:03.470Z,0.70
2019-05-26T17:25:31.060Z,0.65
2019-05-26T17:27:58.992Z,0.60
2019-05-26T17:30:26.853Z,0.60
2019-05-26T17:32:54.652Z,0.50
2019-05-26T17:35:22.172Z,0.70
2019-05-26T17:37:50.238Z,0.90
2019-05-26T17:40:21.126Z,0.55
2019-05-26T17:42:48.715Z,0.68
2019-05-26T17:45:16.394Z,0.70
2019-05-26T17:47:43.955Z,0.75
2019-05-26T17:50:12.040Z,0.60
2019-05-26T17:52:39.625Z,0.70
2019-05-26T17:55:08.541Z,1.00
2019-05-26T17:57:37.191Z,0.60
2019-05-26T18:00:05.782Z,0.55
2019-05-26T18:02:33.425Z,0.68
2019-05-26T18:05:00.952Z,0.70
2019-05-26T18:07:28.827Z,0.72
2019-05-26T18:09:56.936Z,0.78
2019-05-26T18:12:24.467Z,0.80
2019-05-26T18:14:52.632Z,0.80
2019-05-26T18:17:20.224Z,0.80
2019-05-26T18:19:48.260Z,0.85
2019-05-26T18:22:15.848Z,0.90
2019-05-26T18:24:54.272Z,0.60
2019-05-26T18:27:13.073Z,0.70
2019-05-26T18:29:40.614Z,0.80
2019-05-26T18:32:08.200Z,0.80
2019-05-26T18:34:35.919Z,0.60
2019-05-26T18:37:03.647Z,0.75
2019-05-26T18:39:31.745Z,0.60
2019-05-26T18:41:59.639Z,0.80
2019-05-26T18:44:27.164Z,1.00
2019-05-26T18:46:54.777Z,0.93
2019-05-26T18:49:22.345Z,0.60
2019-05-26T18:51:49.898Z,0.90
2019-05-26T18:54:17.424Z,0.80
2019-05-26T18:56:45.012Z,0.82
2019-05-26T18:59:12.823Z,1.15
2019-05-26T19:01:41.376Z,0.70
2019-05-26T19:04:09.299Z,0.82
2019-05-26T19:06:37.705Z,0.93
2019-05-26T19:09:08.172Z,0.80
2019-05-26T19:11:35.595Z,0.70
2019-05-26T19:14:03.623Z,0.70
2019-05-26T19:16:31.174Z,0.70
2019-05-26T19:18:59.542Z,0.68
2019-05-26T19:21:27.411Z,0.75
2019-05-26T19:23:54.849Z,0.70
2019-05-26T19:26:22.387Z,0.85
2019-05-26T19:28:49.820Z,0.90
2019-05-26T19:31:17.272Z,0.80
2019-05-26T19:33:44.890Z,0.90
2019-05-26T19:36:13.023Z,0.70
2019-05-26T19:38:40.566Z,0.90
2019-05-26T19:41:08.863Z,0.72
2019-05-26T19:43:36.710Z,0.90
2019-05-26T19:46:04.822Z,0.90
2019-05-26T19:48:36.585Z,0.70
2019-05-26T19:51:01.699Z,0.98
2019-05-26T19:53:29.231Z,0.90
2019-05-26T19:55:57.154Z,0.95
2019-05-26T19:58:28.423Z,0.90
2019-05-26T20:00:54.504Z,1.10
2019-05-26T20:03:22.034Z,1.10
2019-05-26T20:05:49.845Z,0.78
2019-05-26T20:08:18.008Z,0.90
2019-05-26T20:10:45.976Z,1.00
2019-05-26T20:13:13.499Z,0.93
2019-05-26T20:15:41.447Z,0.90
2019-05-26T20:18:09.212Z,0.93
2019-05-26T20:20:36.681Z,0.93
2019-05-26T20:23:04.878Z,0.82
2019-05-26T20:25:32.401Z,0.98
2019-05-26T20:28:00.155Z,1.15
2019-05-26T20:30:27.576Z,0.90
2019-05-26T20:32:55.475Z,1.07
2019-05-26T20:35:22.996Z,0.98
2019-05-26T20:37:50.591Z,1.20
2019-05-26T20:40:18.518Z,0.90
2019-05-26T20:42:46.048Z,1.12
2019-05-26T20:45:14.277Z,0.93
2019-05-26T20:47:42.116Z,1.12
2019-05-26T20:50:10.306Z,0.95
2019-05-26T21:48:24.288Z,1.12
2019-05-26T21:50:51.768Z,1.10
2019-05-26T21:53:19.609Z,1.10
2019-05-26T21:55:47.795Z,1.42
2019-05-26T21:58:15.587Z,1.30
2019-05-26T22:00:45.677Z,1.07
2019-05-26T22:03:13.450Z,1.17
2019-05-26T22:05:41.541Z,1.10
2019-05-26T22:08:09.622Z,1.10
2019-05-26T22:10:37.125Z,1.30
2019-05-26T22:13:04.980Z,1.00
2019-05-26T22:15:32.502Z,1.10
2019-05-26T22:18:00.029Z,1.27
2019-05-26T22:20:27.544Z,1.10
2019-05-26T22:22:54.938Z,1.00
2019-05-26T22:25:22.428Z,0.90
2019-05-26T22:27:49.952Z,1.10
2019-05-26T22:30:18.917Z,1.12
2019-05-26T22:32:46.495Z,1.35
2019-05-26T22:35:14.034Z,1.15
2019-05-26T22:37:41.573Z,1.10
2019-05-26T22:40:09.111Z,1.00
2019-05-26T22:42:36.538Z,1.20
2019-05-26T22:45:04.846Z,0.98
2019-05-26T22:47:32.394Z,1.00
2019-05-26T22:49:59.923Z,0.80
2019-05-26T22:52:27.579Z,1.60
2019-05-26T22:54:55.144Z,1.05
2019-05-26T22:57:23.004Z,1.05
2019-05-26T22:59:50.558Z,1.20
2019-05-26T23:02:18.046Z,1.50
2019-05-26T23:04:45.550Z,1.12
2019-05-26T23:07:13.053Z,1.15
2019-05-26T23:09:40.606Z,1.47
2019-05-26T23:12:08.134Z,0.90
2019-05-26T23:14:35.558Z,1.20
2019-05-26T23:17:03.149Z,1.10
2019-05-26T23:19:30.670Z,1.02
2019-05-26T23:21:58.135Z,1.07
2019-05-26T23:24:25.666Z,1.15
2019-05-26T23:26:53.391Z,1.12
2019-05-26T23:29:20.971Z,1.20
2019-05-26T23:31:48.572Z,1.17
2019-05-26T23:34:16.206Z,1.15
2019-05-26T23:36:43.686Z,1.07
2019-05-26T23:39:11.302Z,1.47
2019-05-26T23:41:39.086Z,1.25
2019-05-26T23:44:06.567Z,1.05
2019-05-26T23:46:34.061Z,1.20
2019-05-26T23:49:01.928Z,1.30
2019-05-26T23:51:29.413Z,1.22
2019-05-26T23:53:56.876Z,1.40
2019-05-26T23:56:24.785Z,1.30
2019-05-26T23:58:52.389Z,1.15
